Latest Weather Observations for Cooktown

IDQ60801

Issued at 12:32 pm EST Friday 28 July 2017 (issued every 30 minutes, with the page automatically refreshed every 10 minutes)

About weather observations | Map of weather stations | Latest weather observations for QLD | Other Formats
Station Details ID: 031209 Name: COOKTOWN AIRPORT Lat: -15.45 Lon: 145.19 Height: 4.8 m
Data from the previous 72 hours. | See also: Recent months at Cooktown
Date/Time
EST
Temp
°C
App
Temp
°C
Dew
Point
°C
Rel
Hum
%
Delta-T
°C
Wind Press
QNH
hPa
Press
MSL
hPa
Rain since
9am
mm
Dir  Spd
km/h
Gust
km/h
Spd
kts
Gust
kts
28/12:30pm 26.4 23.6 17.3 57 5.7 SE 28 44 15 24 1018.1 - 0.0
28/12:10pm 26.9 24.3 17.7 57 5.8 ESE 28 46 15 25 1018.4 - 0.0
28/12:00pm 26.2 23.0 17.2 57 5.6 SE 30 43 16 23 1018.6 1018.7 0.0
28/11:30am 26.1 23.9 17.8 60 5.2 SE 26 41 14 22 1018.8 - 0.0
28/11:00am 24.4 23.6 19.2 73 3.3 SE 22 33 12 18 1019.1 - 0.0
28/10:30am 25.7 23.0 18.4 64 4.6 SE 30 48 16 26 1019.1 - 0.0
28/10:22am 25.6 23.2 18.3 64 4.6 SE 28 48 15 26 1019.1 - 0.0
28/10:00am 27.0 24.2 16.3 52 6.6 ESE 26 39 14 21 1019.1 - 0.0
28/09:30am 26.3 23.1 15.4 51 6.6 ESE 26 37 14 20 1019.0 - 0.0
28/09:00am 24.8 24.1 18.6 68 3.9 SE 20 30 11 16 1018.9 1018.8 0.2
28/08:30am 24.1 24.0 19.6 76 2.9 SE 19 30 10 16 1018.7 - 0.2
28/08:00am 23.3 23.5 19.4 79 2.5 SE 17 30 9 16 1018.4 - 0.2
28/07:30am 22.4 22.0 18.9 80 2.2 SE 19 32 10 17 1018.0 - 0.2
28/07:00am 22.0 22.3 18.8 82 2.0 SE 15 22 8 12 1017.6 - 0.2
28/06:30am 22.2 21.4 17.0 72 3.2 SE 17 26 9 14 1017.2 - 0.2
28/06:00am 22.7 22.5 16.6 68 3.7 SE 13 30 7 16 1017.0 1017.0 0.2
28/05:30am 22.0 22.4 16.2 69 3.5 SE 9 13 5 7 1017.0 - 0.2
28/05:00am 22.1 22.0 16.9 72 3.2 SE 13 20 7 11 1016.8 - 0.2
28/04:30am 22.4 21.3 18.7 79 2.3 SE 22 35 12 19 1016.9 - 0.2
28/04:00am 22.4 23.1 17.9 75 2.8 S 11 15 6 8 1016.9 - 0.2
28/03:30am 22.5 21.6 17.7 74 3.0 SE 19 28 10 15 1017.1 - 0.2
28/03:00am 22.6 22.3 18.3 76 2.7 SE 17 24 9 13 1017.3 1017.3 0.2
28/02:30am 22.7 21.9 18.0 75 2.9 SE 19 30 10 16 1017.3 - 0.2
28/02:00am 22.8 22.0 18.0 74 3.0 SSE 19 30 10 16 1017.3 - 0.2
28/01:30am 22.5 22.2 18.2 76 2.7 ESE 17 22 9 12 1017.6 - 0.2
28/01:00am 23.1 22.1 17.6 71 3.4 SE 19 33 10 18 1017.8 - 0.2
28/12:30am 23.1 22.2 17.8 72 3.3 SE 19 28 10 15 1018.0 - 0.2
28/12:00am 23.1 22.5 17.6 71 3.4 SE 17 26 9 14 1018.1 1018.2 0.2
 
Date/Time
EST
Temp
°C
App
Temp
°C
Dew
Point
°C
Rel
Hum
%
Delta-T
°C
Wind Press
QNH
hPa
Press
MSL
hPa
Rain since
9am
mm
Dir  Spd
km/h
Gust
km/h
Spd
kts
Gust
kts
27/11:30pm 23.2 22.5 17.4 70 3.6 SE 17 28 9 15 1018.3 - 0.2
27/11:00pm 23.3 22.3 17.5 70 3.6 SE 19 30 10 16 1018.6 - 0.2
27/10:00pm 23.3 22.2 17.3 69 3.7 SE 19 32 10 17 1018.6 - 0.2
27/09:30pm 23.3 22.1 17.1 68 3.8 SE 19 33 10 18 1018.5 - 0.2
27/09:00pm 23.1 22.0 17.8 72 3.3 SE 20 32 11 17 1018.2 1018.1 0.2
27/08:30pm 22.9 21.7 17.6 72 3.3 ESE 20 35 11 19 1017.9 - 0.2
27/08:00pm 22.8 21.6 17.6 72 3.2 ESE 20 32 11 17 1017.7 - 0.2
27/07:30pm 22.8 21.8 17.6 72 3.2 ESE 19 28 10 15 1017.4 - 0.2
27/07:00pm 22.4 21.5 17.7 75 2.9 ESE 19 30 10 16 1017.2 - 0.2
27/06:30pm 21.8 21.8 18.9 83 1.8 SE 17 24 9 13 1017.1 - 0.0
27/06:00pm 23.2 23.0 17.6 71 3.5 SE 15 24 8 13 1016.7 1016.6 0.0
27/05:30pm 23.5 21.9 17.5 69 3.7 SE 22 41 12 22 1016.6 - 0.0
27/05:00pm 23.0 21.1 18.5 76 2.8 SE 26 48 14 26 1016.5 - 0.0
27/04:59pm 23.0 20.7 18.4 75 2.9 SE 28 48 15 26 1016.5 - 0.0
27/04:30pm 23.8 23.7 18.7 73 3.2 SE 17 33 9 18 1016.3 - 0.0
27/04:00pm 22.3 22.6 19.6 85 1.7 SSE 17 28 9 15 1016.4 - 0.0
27/03:30pm 24.7 23.6 18.7 69 3.8 SE 22 41 12 22 1016.1 - 0.0
27/03:00pm 25.3 23.8 17.6 62 4.8 ESE 22 35 12 19 1016.3 1016.3 0.0
27/02:30pm 25.8 22.8 16.9 58 5.5 ESE 28 41 15 22 1016.5 - 0.0
27/02:00pm 25.0 24.1 18.3 66 4.2 ESE 20 32 11 17 1016.8 - 0.0
27/01:30pm 26.0 24.4 19.3 66 4.3 SE 26 39 14 21 1017.0 - 0.0
27/01:00pm 26.7 23.2 15.5 50 6.8 SE 28 39 15 21 1017.0 - 0.0
27/12:30pm 27.8 23.2 13.4 41 8.5 E 30 41 16 22 1017.2 - 0.0
27/12:00pm 28.0 23.0 12.1 37 9.2 ESE 30 41 16 22 1017.7 1017.8 0.0
27/11:30am 28.1 23.3 14.7 44 8.1 E 33 48 18 26 1017.9 - 0.0
27/11:00am 27.0 22.5 15.5 49 7.0 E 33 46 18 25 1018.0 - 0.0
27/10:30am 26.6 21.8 13.9 45 7.5 ESE 32 44 17 24 1018.0 - 0.0
27/09:30am 26.0 22.0 15.2 51 6.5 ESE 30 46 16 25 1017.9 - 0.0
27/09:00am 25.7 21.9 16.6 57 5.6 E 32 44 17 24 1017.6 1017.5 0.8
27/08:30am 25.3 22.0 16.1 56 5.6 ESE 28 37 15 20 1017.1 - 0.8
27/08:00am 24.8 21.4 16.7 60 5.0 E 30 46 16 25 1016.7 - 0.8
27/07:30am 23.7 21.5 17.9 70 3.6 E 26 33 14 18 1016.3 - 0.8
27/07:00am 22.9 20.5 16.3 66 4.0 E 24 37 13 20 1016.0 - 0.8
27/06:30am 23.1 19.5 15.2 61 4.7 ESE 28 41 15 22 1015.9 - 0.8
27/06:12am 23.6 19.1 13.8 54 5.7 ESE 30 48 16 26 1015.8 - 0.8
27/06:00am 23.0 19.8 15.3 62 4.6 E 26 41 14 22 1015.7 1015.7 0.8
27/05:30am 23.0 21.0 15.5 62 4.5 ESE 20 33 11 18 1015.6 - 0.8
27/05:00am 22.3 21.9 17.1 72 3.2 SE 15 24 8 13 1015.7 - 0.8
27/04:30am 22.3 21.2 16.4 69 3.6 ESE 17 26 9 14 1015.8 - 0.8
27/04:00am 21.7 21.4 18.2 80 2.2 ESE 17 30 9 16 1015.9 - 0.8
27/03:30am 21.0 22.9 19.7 92 0.8 SE 9 19 5 10 1016.0 - 0.8
27/03:05am 20.8 21.2 19.1 90 1.1 SE 15 24 8 13 1016.2 - 0.8
27/03:00am 20.6 20.8 19.3 92 0.8 SE 17 24 9 13 1016.2 1016.3 0.8
27/02:56am 20.5 21.0 19.2 92 0.8 SE 15 22 8 12 1016.3 - 0.8
27/02:42am 20.6 20.4 19.3 92 0.8 SE 19 30 10 16 1016.5 - 0.6
27/02:30am 20.8 19.5 19.1 90 1.1 SE 24 43 13 23 1016.5 - 0.2
27/02:00am 21.5 21.2 18.3 82 2.0 SE 17 26 9 14 1016.7 - 0.0
27/01:30am 21.4 21.2 17.5 78 2.4 ESE 15 26 8 14 1017.1 - 0.0
27/01:00am 21.3 20.9 18.1 82 2.0 ESE 17 24 9 13 1017.4 - 0.0
27/12:30am 21.7 20.7 17.5 77 2.6 SE 19 30 10 16 1017.6 - 0.0
27/12:00am 21.9 21.7 16.6 72 3.2 SE 13 22 7 12 1017.7 1017.8 0.0
 
Date/Time
EST
Temp
°C
App
Temp
°C
Dew
Point
°C
Rel
Hum
%
Delta-T
°C
Wind Press
QNH
hPa
Press
MSL
hPa
Rain since
9am
mm
Dir  Spd
km/h
Gust
km/h
Spd
kts
Gust
kts
26/11:30pm 22.0 21.0 16.7 72 3.2 SSE 17 28 9 15 1017.8 - 0.0
26/11:00pm 22.1 21.3 17.0 73 3.1 SE 17 28 9 15 1018.1 - 0.0
26/10:30pm 22.0 20.9 17.3 74 2.9 SE 19 33 10 18 1018.2 - 0.0
26/10:00pm 21.8 21.5 17.4 76 2.7 SE 15 26 8 14 1018.2 - 0.0
26/09:30pm 21.8 21.1 18.3 80 2.2 SE 19 28 10 15 1018.1 - 0.0
26/09:00pm 21.9 21.3 18.5 81 2.1 SE 19 26 10 14 1018.0 1018.0 0.0
26/08:30pm 21.8 21.6 18.6 82 2.0 SE 17 24 9 13 1017.9 - 0.0
26/08:00pm 22.2 21.4 18.0 77 2.6 SE 19 30 10 16 1017.6 - 0.0
26/07:30pm 21.9 21.4 17.7 77 2.6 SE 17 33 9 18 1017.4 - 0.0
26/07:00pm 22.1 21.4 17.4 74 2.9 SE 17 26 9 14 1017.2 - 0.0
26/06:30pm 22.5 21.9 17.5 73 3.1 SE 17 24 9 13 1017.0 - 0.0
26/06:00pm 23.1 22.3 18.0 73 3.2 SE 19 30 10 16 1016.7 1016.6 0.0
26/05:30pm 23.8 22.7 17.3 67 4.0 SE 19 30 10 16 1016.3 - 0.0
26/05:00pm 24.4 22.7 17.1 63 4.5 SE 22 35 12 19 1015.9 - 0.0
26/04:30pm 24.7 22.3 16.5 60 5.0 SE 24 37 13 20 1015.8 - 0.0
26/04:00pm 25.3 22.8 16.1 56 5.6 SE 24 35 13 19 1015.7 - 0.0
26/03:30pm 25.8 23.2 16.9 58 5.5 ESE 26 44 14 24 1015.6 - 0.0
26/03:00pm 26.1 23.0 16.5 55 5.9 SE 28 37 15 20 1015.6 1015.6 0.0
26/02:00pm 26.1 23.3 16.3 54 6.0 ESE 26 39 14 21 1016.0 - 0.0
26/01:30pm 26.8 24.0 16.4 53 6.4 SE 26 37 14 20 1016.3 - 0.0
26/01:00pm 26.7 24.9 17.8 58 5.6 SE 24 37 13 20 1016.8 - 0.0
26/12:30pm 26.9 25.2 18.2 59 5.5 ESE 24 37 13 20 1017.2 - 0.0
26/12:00pm 27.4 23.6 14.8 46 7.6 ESE 28 41 15 22 1017.3 1017.3 0.0
26/11:30am 27.0 24.4 14.9 47 7.3 ESE 22 37 12 20 1017.6 - 0.0
26/11:00am 26.6 21.8 11.5 39 8.6 ESE 28 46 15 25 1017.8 - 0.0
26/10:30am 26.6 22.8 15.8 51 6.6 ESE 30 44 16 24 1018.3 - 0.0
26/10:00am 26.1 22.3 15.7 52 6.3 ESE 30 43 16 23 1018.3 - 0.0
26/09:30am 24.7 22.4 16.7 61 4.9 ESE 24 33 13 18 1018.4 - 0.0
26/09:00am 24.8 23.2 16.5 60 5.1 ESE 20 35 11 19 1018.2 1018.1 0.0
26/08:30am 25.2 23.7 16.8 59 5.2 SE 20 30 11 16 1017.9 - 0.0
26/08:00am 23.6 22.1 16.7 65 4.2 SE 20 30 11 16 1017.6 - 0.0
26/07:30am 23.3 21.5 16.0 63 4.4 SE 20 33 11 18 1017.2 - 0.0
26/07:00am 23.0 20.4 15.9 64 4.3 SE 24 35 13 19 1016.8 - 0.0
26/06:30am 22.9 21.3 15.9 64 4.2 ESE 19 30 10 16 1016.5 - 0.0
26/06:00am 23.2 20.7 15.1 60 4.8 ESE 22 32 12 17 1016.2 1016.1 0.0
26/05:30am 22.6 21.8 16.1 66 3.9 ESE 15 24 8 13 1015.8 - 0.0
26/05:00am 22.2 21.5 17.3 74 3.0 SE 17 24 9 13 1015.7 - 0.0
26/04:30am 22.5 22.1 17.1 71 3.3 SE 15 26 8 14 1015.6 - 0.0
26/04:00am 22.8 22.1 16.4 67 3.9 ESE 15 26 8 14 1015.5 - 0.0
26/03:30am 22.5 22.7 16.8 70 3.5 SE 11 17 6 9 1015.4 - 0.0
26/03:00am 22.7 22.6 17.9 74 3.0 SSE 15 28 8 15 1015.6 1015.6 0.0
26/02:30am 23.2 22.3 17.7 71 3.4 ESE 19 28 10 15 1015.8 - 0.0
26/02:00am 22.3 22.3 19.0 81 2.1 SSE 17 24 9 13 1016.0 - 0.0
26/01:30am 22.1 22.9 19.1 83 1.9 SE 13 24 7 13 1016.4 - 0.0
26/01:00am 22.0 22.5 19.2 84 1.8 SE 15 26 8 14 1016.7 - 0.0
26/12:30am 22.1 22.8 18.9 82 2.0 SE 13 19 7 10 1017.0 - 0.0
26/12:00am 21.9 22.8 19.2 85 1.7 SE 13 24 7 13 1017.1 1017.1 0.0
 
Date/Time
EST
Temp
°C
App
Temp
°C
Dew
Point
°C
Rel
Hum
%
Delta-T
°C
Wind Press
QNH
hPa
Press
MSL
hPa
Rain since
9am
mm
Dir  Spd
km/h
Gust
km/h
Spd
kts
Gust
kts
25/11:30pm 22.0 22.9 19.2 84 1.8 SE 13 20 7 11 1017.2 - 0.0
25/11:00pm 22.1 22.1 18.9 82 2.0 SE 17 28 9 15 1017.5 - 0.0
25/10:30pm 22.1 22.1 18.9 82 2.0 SE 17 28 9 15 1017.6 - 0.0
25/10:00pm 22.1 22.0 18.8 81 2.1 SE 17 24 9 13 1017.8 - 0.0
25/09:30pm 22.3 22.5 18.6 79 2.3 SE 15 22 8 12 1017.9 - 0.0
25/09:00pm 22.4 22.2 17.7 75 2.9 SE 15 26 8 14 1017.7 1017.7 0.0
25/08:30pm 22.5 22.0 17.8 75 2.9 SE 17 28 9 15 1017.7 - 0.0
25/08:00pm 22.4 22.2 18.6 79 2.4 SE 17 26 9 14 1017.5 - 0.0
25/07:30pm 22.4 23.1 19.6 84 1.8 SE 15 24 8 13 1017.2 - 0.0
25/07:00pm 22.5 22.5 19.0 80 2.2 SE 17 30 9 16 1016.9 - 0.0
25/06:30pm 22.8 22.9 19.2 80 2.3 SE 17 26 9 14 1016.6 - 0.0
25/06:00pm 23.3 23.3 19.0 77 2.7 SE 17 24 9 13 1016.4 1016.4 0.0
25/05:30pm 23.8 23.3 18.6 72 3.3 SE 19 28 10 15 1016.4 - 0.0
25/05:00pm 23.6 23.2 18.9 75 3.0 SSE 19 32 10 17 1016.1 - 0.0
25/04:30pm 24.5 23.3 18.3 68 3.9 SSE 22 35 12 19 1016.1 - 0.0
25/04:00pm 25.2 23.1 17.1 60 5.0 SE 24 39 13 21 1015.9 - 0.0
25/03:30pm 25.3 24.4 18.2 64 4.5 SE 20 35 11 19 1015.8 - 0.0
25/03:00pm 26.1 25.4 18.7 63 4.7 SE 20 37 11 20 1015.8 1015.8 0.0
25/02:30pm 25.7 23.6 18.1 63 4.8 ESE 26 43 14 23 1015.8 - 0.0
25/02:00pm 25.4 22.8 17.9 63 4.7 SE 28 39 15 21 1015.9 - 0.0
25/01:30pm 26.8 25.0 17.9 58 5.6 SE 24 39 13 21 1016.2 - 0.0
25/01:00pm 25.5 24.5 17.9 63 4.8 SE 20 32 11 17 1016.6 - 0.0

Other Formats:

Comma delimited format used in spreadsheet applications
http://www.bom.gov.au/fwo/IDQ60801/IDQ60801.95283.axf

JavaScript Object Notation format (JSON) in row-major order
http://www.bom.gov.au/fwo/IDQ60801/IDQ60801.95283.json